sensor_id;sensor_type;location;lat;lon;timestamp;P1;durP1;ratioP1;P2;durP2;ratioP2
41829;SDS011;38614;43.472;23.936;2024-01-06T00:01:38;29.52;;;10.23;;
41829;SDS011;38614;43.472;23.936;2024-01-06T00:04:26;29.80;;;11.00;;
41829;SDS011;38614;43.472;23.936;2024-01-06T00:07:16;38.28;;;10.93;;
41829;SDS011;38614;43.472;23.936;2024-01-06T00:10:03;24.70;;;8.65;;
41829;SDS011;38614;43.472;23.936;2024-01-06T00:12:51;21.25;;;8.18;;
41829;SDS011;38614;43.472;23.936;2024-01-06T00:15:39;24.67;;;8.75;;
41829;SDS011;38614;43.472;23.936;2024-01-06T00:18:27;33.65;;;9.45;;
41829;SDS011;38614;43.472;23.936;2024-01-06T00:21:15;18.83;;;7.80;;
41829;SDS011;38614;43.472;23.936;2024-01-06T00:24:03;29.73;;;8.00;;
41829;SDS011;38614;43.472;23.936;2024-01-06T00:26:51;30.02;;;11.25;;
41829;SDS011;38614;43.472;23.936;2024-01-06T00:29:39;36.20;;;15.07;;
41829;SDS011;38614;43.472;23.936;2024-01-06T00:32:26;34.42;;;13.30;;
41829;SDS011;38614;43.472;23.936;2024-01-06T00:35:15;24.30;;;9.50;;
41829;SDS011;38614;43.472;23.936;2024-01-06T00:38:02;19.08;;;6.88;;
41829;SDS011;38614;43.472;23.936;2024-01-06T00:40:51;17.52;;;5.13;;
41829;SDS011;38614;43.472;23.936;2024-01-06T00:43:38;13.20;;;6.60;;
41829;SDS011;38614;43.472;23.936;2024-01-06T00:46:26;12.32;;;5.97;;
41829;SDS011;38614;43.472;23.936;2024-01-06T00:49:14;18.73;;;6.85;;
41829;SDS011;38614;43.472;23.936;2024-01-06T00:52:02;19.02;;;7.43;;
41829;SDS011;38614;43.472;23.936;2024-01-06T00:54:49;18.85;;;7.40;;
41829;SDS011;38614;43.472;23.936;2024-01-06T00:57:37;20.52;;;7.97;;
41829;SDS011;38614;43.472;23.936;2024-01-06T01:00:25;30.23;;;8.85;;
41829;SDS011;38614;43.472;23.936;2024-01-06T01:03:14;27.83;;;10.13;;
41829;SDS011;38614;43.472;23.936;2024-01-06T01:06:02;14.25;;;5.97;;
41829;SDS011;38614;43.472;23.936;2024-01-06T01:08:50;9.98;;;3.70;;
41829;SDS011;38614;43.472;23.936;2024-01-06T01:11:39;14.20;;;3.17;;
41829;SDS011;38614;43.472;23.936;2024-01-06T01:14:27;7.70;;;2.60;;
41829;SDS011;38614;43.472;23.936;2024-01-06T01:17:15;4.05;;;2.75;;
41829;SDS011;38614;43.472;23.936;2024-01-06T01:20:02;6.57;;;2.67;;
41829;SDS011;38614;43.472;23.936;2024-01-06T01:22:51;9.23;;;3.15;;
41829;SDS011;38614;43.472;23.936;2024-01-06T01:25:40;7.53;;;2.65;;
41829;SDS011;38614;43.472;23.936;2024-01-06T01:28:28;6.60;;;2.10;;
41829;SDS011;38614;43.472;23.936;2024-01-06T01:31:16;6.65;;;2.20;;
41829;SDS011;38614;43.472;23.936;2024-01-06T01:34:05;10.13;;;2.47;;
41829;SDS011;38614;43.472;23.936;2024-01-06T01:36:53;7.72;;;2.30;;
41829;SDS011;38614;43.472;23.936;2024-01-06T01:39:41;11.00;;;2.88;;
41829;SDS011;38614;43.472;23.936;2024-01-06T01:42:30;5.18;;;1.70;;
41829;SDS011;38614;43.472;23.936;2024-01-06T01:45:18;5.63;;;3.05;;
41829;SDS011;38614;43.472;23.936;2024-01-06T01:48:06;5.53;;;1.98;;
41829;SDS011;38614;43.472;23.936;2024-01-06T01:50:54;6.75;;;2.42;;
41829;SDS011;38614;43.472;23.936;2024-01-06T01:53:42;8.15;;;3.17;;
41829;SDS011;38614;43.472;23.936;2024-01-06T01:56:31;10.15;;;3.85;;
41829;SDS011;38614;43.472;23.936;2024-01-06T01:59:22;15.55;;;2.75;;
41829;SDS011;38614;43.472;23.936;2024-01-06T02:02:10;17.40;;;4.32;;
41829;SDS011;38614;43.472;23.936;2024-01-06T02:04:59;11.85;;;2.38;;
41829;SDS011;38614;43.472;23.936;2024-01-06T02:07:47;12.43;;;2.90;;
41829;SDS011;38614;43.472;23.936;2024-01-06T02:10:35;9.48;;;3.30;;
41829;SDS011;38614;43.472;23.936;2024-01-06T02:13:23;13.70;;;4.20;;
41829;SDS011;38614;43.472;23.936;2024-01-06T02:16:11;10.98;;;4.53;;
41829;SDS011;38614;43.472;23.936;2024-01-06T02:18:59;6.20;;;4.32;;
41829;SDS011;38614;43.472;23.936;2024-01-06T02:21:52;11.73;;;4.53;;
41829;SDS011;38614;43.472;23.936;2024-01-06T02:24:43;12.95;;;4.45;;
41829;SDS011;38614;43.472;23.936;2024-01-06T02:27:31;11.25;;;4.22;;
41829;SDS011;38614;43.472;23.936;2024-01-06T02:30:19;10.00;;;3.75;;
41829;SDS011;38614;43.472;23.936;2024-01-06T02:33:07;6.68;;;3.80;;
41829;SDS011;38614;43.472;23.936;2024-01-06T02:35:55;11.07;;;4.20;;
41829;SDS011;38614;43.472;23.936;2024-01-06T02:38:43;14.15;;;4.25;;
41829;SDS011;38614;43.472;23.936;2024-01-06T02:41:31;13.35;;;4.82;;
41829;SDS011;38614;43.472;23.936;2024-01-06T02:44:19;17.48;;;5.15;;
41829;SDS011;38614;43.472;23.936;2024-01-06T02:47:07;8.63;;;4.32;;
41829;SDS011;38614;43.472;23.936;2024-01-06T02:49:54;8.65;;;3.47;;
41829;SDS011;38614;43.472;23.936;2024-01-06T02:52:43;14.90;;;5.72;;
41829;SDS011;38614;43.472;23.936;2024-01-06T02:55:32;12.95;;;8.73;;
41829;SDS011;38614;43.472;23.936;2024-01-06T02:58:21;16.15;;;8.88;;
41829;SDS011;38614;43.472;23.936;2024-01-06T03:01:08;16.15;;;7.03;;
41829;SDS011;38614;43.472;23.936;2024-01-06T03:04:01;10.77;;;6.57;;
41829;SDS011;38614;43.472;23.936;2024-01-06T03:06:49;15.65;;;7.78;;
41829;SDS011;38614;43.472;23.936;2024-01-06T03:09:41;7.35;;;5.22;;
41829;SDS011;38614;43.472;23.936;2024-01-06T03:12:29;14.25;;;7.13;;
41829;SDS011;38614;43.472;23.936;2024-01-06T03:15:16;12.27;;;7.18;;
41829;SDS011;38614;43.472;23.936;2024-01-06T03:18:04;18.83;;;7.93;;
41829;SDS011;38614;43.472;23.936;2024-01-06T03:20:52;28.13;;;10.50;;
41829;SDS011;38614;43.472;23.936;2024-01-06T03:23:40;21.38;;;10.15;;
41829;SDS011;38614;43.472;23.936;2024-01-06T03:26:28;23.02;;;10.32;;
41829;SDS011;38614;43.472;23.936;2024-01-06T03:29:16;30.45;;;11.95;;
41829;SDS011;38614;43.472;23.936;2024-01-06T03:32:03;19.73;;;10.32;;
41829;SDS011;38614;43.472;23.936;2024-01-06T03:34:51;19.40;;;10.75;;
41829;SDS011;38614;43.472;23.936;2024-01-06T03:37:40;29.55;;;11.93;;
41829;SDS011;38614;43.472;23.936;2024-01-06T03:40:28;24.63;;;11.65;;
41829;SDS011;38614;43.472;23.936;2024-01-06T03:43:16;23.20;;;9.95;;
41829;SDS011;38614;43.472;23.936;2024-01-06T03:46:04;24.70;;;10.98;;
41829;SDS011;38614;43.472;23.936;2024-01-06T03:48:52;39.80;;;11.55;;
41829;SDS011;38614;43.472;23.936;2024-01-06T03:51:41;35.08;;;15.20;;
41829;SDS011;38614;43.472;23.936;2024-01-06T03:54:28;41.30;;;18.60;;
41829;SDS011;38614;43.472;23.936;2024-01-06T03:57:16;22.80;;;12.18;;
41829;SDS011;38614;43.472;23.936;2024-01-06T04:00:06;25.95;;;12.68;;
41829;SDS011;38614;43.472;23.936;2024-01-06T04:02:55;30.00;;;14.65;;
41829;SDS011;38614;43.472;23.936;2024-01-06T04:05:42;31.40;;;15.63;;
41829;SDS011;38614;43.472;23.936;2024-01-06T04:08:30;39.53;;;15.98;;
41829;SDS011;38614;43.472;23.936;2024-01-06T04:11:18;32.22;;;16.45;;
41829;SDS011;38614;43.472;23.936;2024-01-06T04:14:05;36.00;;;15.77;;
41829;SDS011;38614;43.472;23.936;2024-01-06T04:16:53;32.20;;;13.70;;
41829;SDS011;38614;43.472;23.936;2024-01-06T04:19:41;25.88;;;12.50;;
41829;SDS011;38614;43.472;23.936;2024-01-06T04:22:29;39.28;;;18.42;;
41829;SDS011;38614;43.472;23.936;2024-01-06T04:25:16;22.55;;;12.43;;
41829;SDS011;38614;43.472;23.936;2024-01-06T04:28:04;48.78;;;25.42;;
41829;SDS011;38614;43.472;23.936;2024-01-06T04:30:52;42.38;;;23.42;;
41829;SDS011;38614;43.472;23.936;2024-01-06T04:33:40;39.53;;;23.60;;
41829;SDS011;38614;43.472;23.936;2024-01-06T04:36:28;30.95;;;15.80;;
41829;SDS011;38614;43.472;23.936;2024-01-06T04:39:15;20.83;;;11.30;;
41829;SDS011;38614;43.472;23.936;2024-01-06T04:42:04;18.38;;;9.35;;
41829;SDS011;38614;43.472;23.936;2024-01-06T04:44:52;30.35;;;9.93;;
41829;SDS011;38614;43.472;23.936;2024-01-06T04:47:39;26.45;;;11.95;;
41829;SDS011;38614;43.472;23.936;2024-01-06T04:50:27;21.50;;;12.15;;
41829;SDS011;38614;43.472;23.936;2024-01-06T04:53:15;23.38;;;12.10;;
41829;SDS011;38614;43.472;23.936;2024-01-06T04:56:02;25.90;;;12.95;;
41829;SDS011;38614;43.472;23.936;2024-01-06T04:58:50;27.30;;;12.18;;
41829;SDS011;38614;43.472;23.936;2024-01-06T05:01:38;26.10;;;11.73;;
41829;SDS011;38614;43.472;23.936;2024-01-06T05:04:26;28.27;;;15.82;;
41829;SDS011;38614;43.472;23.936;2024-01-06T05:07:14;25.25;;;14.10;;
41829;SDS011;38614;43.472;23.936;2024-01-06T05:10:02;27.40;;;12.82;;
41829;SDS011;38614;43.472;23.936;2024-01-06T05:12:49;29.50;;;16.90;;
41829;SDS011;38614;43.472;23.936;2024-01-06T05:15:37;31.75;;;18.70;;
41829;SDS011;38614;43.472;23.936;2024-01-06T05:18:25;32.25;;;17.48;;
41829;SDS011;38614;43.472;23.936;2024-01-06T05:21:13;35.67;;;16.80;;
41829;SDS011;38614;43.472;23.936;2024-01-06T05:24:01;34.53;;;15.63;;
41829;SDS011;38614;43.472;23.936;2024-01-06T05:26:48;30.17;;;14.40;;
41829;SDS011;38614;43.472;23.936;2024-01-06T05:29:36;30.92;;;15.65;;
41829;SDS011;38614;43.472;23.936;2024-01-06T05:32:24;42.85;;;17.52;;
41829;SDS011;38614;43.472;23.936;2024-01-06T05:35:12;36.25;;;19.33;;
41829;SDS011;38614;43.472;23.936;2024-01-06T05:38:00;40.90;;;16.77;;
41829;SDS011;38614;43.472;23.936;2024-01-06T05:40:47;33.85;;;17.52;;
41829;SDS011;38614;43.472;23.936;2024-01-06T05:43:35;42.72;;;20.20;;
41829;SDS011;38614;43.472;23.936;2024-01-06T05:46:23;38.85;;;19.80;;
41829;SDS011;38614;43.472;23.936;2024-01-06T05:49:11;33.78;;;17.75;;
41829;SDS011;38614;43.472;23.936;2024-01-06T05:51:59;34.95;;;19.10;;
41829;SDS011;38614;43.472;23.936;2024-01-06T05:54:47;44.15;;;21.85;;
41829;SDS011;38614;43.472;23.936;2024-01-06T05:57:35;47.33;;;21.45;;
41829;SDS011;38614;43.472;23.936;2024-01-06T06:00:30;48.63;;;21.13;;
41829;SDS011;38614;43.472;23.936;2024-01-06T06:03:19;43.67;;;20.58;;
41829;SDS011;38614;43.472;23.936;2024-01-06T06:06:06;36.92;;;19.77;;
41829;SDS011;38614;43.472;23.936;2024-01-06T06:08:55;46.03;;;20.23;;
41829;SDS011;38614;43.472;23.936;2024-01-06T06:11:43;40.63;;;20.52;;
41829;SDS011;38614;43.472;23.936;2024-01-06T06:14:34;49.00;;;24.17;;
41829;SDS011;38614;43.472;23.936;2024-01-06T06:17:22;56.03;;;25.85;;
41829;SDS011;38614;43.472;23.936;2024-01-06T06:20:10;50.85;;;24.38;;
41829;SDS011;38614;43.472;23.936;2024-01-06T06:22:58;46.13;;;24.25;;
41829;SDS011;38614;43.472;23.936;2024-01-06T06:25:45;49.13;;;23.40;;
41829;SDS011;38614;43.472;23.936;2024-01-06T06:28:33;56.00;;;22.58;;
41829;SDS011;38614;43.472;23.936;2024-01-06T06:31:21;52.47;;;26.20;;
41829;SDS011;38614;43.472;23.936;2024-01-06T06:34:10;38.58;;;20.73;;
41829;SDS011;38614;43.472;23.936;2024-01-06T06:37:06;29.83;;;16.30;;
41829;SDS011;38614;43.472;23.936;2024-01-06T06:39:54;31.42;;;15.45;;
41829;SDS011;38614;43.472;23.936;2024-01-06T06:42:42;39.53;;;20.35;;
41829;SDS011;38614;43.472;23.936;2024-01-06T06:45:29;36.90;;;19.05;;
41829;SDS011;38614;43.472;23.936;2024-01-06T06:48:17;44.15;;;19.02;;
41829;SDS011;38614;43.472;23.936;2024-01-06T06:51:06;57.08;;;19.88;;
41829;SDS011;38614;43.472;23.936;2024-01-06T06:53:56;42.70;;;19.95;;
41829;SDS011;38614;43.472;23.936;2024-01-06T06:56:46;47.13;;;22.67;;
41829;SDS011;38614;43.472;23.936;2024-01-06T06:59:33;43.55;;;20.55;;
41829;SDS011;38614;43.472;23.936;2024-01-06T07:02:21;44.42;;;19.38;;
41829;SDS011;38614;43.472;23.936;2024-01-06T07:05:10;53.30;;;25.35;;
41829;SDS011;38614;43.472;23.936;2024-01-06T07:08:00;67.05;;;36.60;;
41829;SDS011;38614;43.472;23.936;2024-01-06T07:10:47;76.43;;;41.83;;
41829;SDS011;38614;43.472;23.936;2024-01-06T07:13:37;73.22;;;42.47;;
41829;SDS011;38614;43.472;23.936;2024-01-06T07:16:25;63.63;;;34.95;;
41829;SDS011;38614;43.472;23.936;2024-01-06T07:19:14;54.17;;;31.05;;
41829;SDS011;38614;43.472;23.936;2024-01-06T07:22:02;66.70;;;29.85;;
41829;SDS011;38614;43.472;23.936;2024-01-06T07:24:53;58.25;;;30.52;;
41829;SDS011;38614;43.472;23.936;2024-01-06T07:27:44;51.55;;;28.40;;
41829;SDS011;38614;43.472;23.936;2024-01-06T07:30:31;64.95;;;33.60;;
41829;SDS011;38614;43.472;23.936;2024-01-06T07:33:20;65.70;;;35.63;;
41829;SDS011;38614;43.472;23.936;2024-01-06T07:36:08;66.40;;;35.90;;
41829;SDS011;38614;43.472;23.936;2024-01-06T07:38:56;79.68;;;38.63;;
41829;SDS011;38614;43.472;23.936;2024-01-06T07:41:43;70.88;;;38.83;;
41829;SDS011;38614;43.472;23.936;2024-01-06T07:44:35;76.88;;;40.47;;
41829;SDS011;38614;43.472;23.936;2024-01-06T07:47:23;78.00;;;39.00;;
41829;SDS011;38614;43.472;23.936;2024-01-06T07:50:12;70.65;;;37.38;;
41829;SDS011;38614;43.472;23.936;2024-01-06T07:53:00;62.13;;;32.17;;
41829;SDS011;38614;43.472;23.936;2024-01-06T07:55:49;71.20;;;36.05;;
41829;SDS011;38614;43.472;23.936;2024-01-06T07:58:36;92.15;;;43.17;;
41829;SDS011;38614;43.472;23.936;2024-01-06T08:01:24;136.20;;;68.57;;
41829;SDS011;38614;43.472;23.936;2024-01-06T08:04:12;140.15;;;73.90;;
41829;SDS011;38614;43.472;23.936;2024-01-06T08:07:00;135.60;;;65.85;;
41829;SDS011;38614;43.472;23.936;2024-01-06T08:09:48;111.10;;;63.22;;
41829;SDS011;38614;43.472;23.936;2024-01-06T08:12:35;115.30;;;64.25;;
41829;SDS011;38614;43.472;23.936;2024-01-06T08:15:23;112.97;;;60.38;;
41829;SDS011;38614;43.472;23.936;2024-01-06T08:18:11;108.85;;;57.72;;
41829;SDS011;38614;43.472;23.936;2024-01-06T08:20:59;79.68;;;40.03;;
41829;SDS011;38614;43.472;23.936;2024-01-06T08:23:47;65.10;;;31.52;;
41829;SDS011;38614;43.472;23.936;2024-01-06T08:26:34;60.53;;;27.80;;
41829;SDS011;38614;43.472;23.936;2024-01-06T08:29:22;44.92;;;24.58;;
41829;SDS011;38614;43.472;23.936;2024-01-06T08:32:10;61.50;;;26.80;;
41829;SDS011;38614;43.472;23.936;2024-01-06T08:34:59;60.08;;;23.27;;
41829;SDS011;38614;43.472;23.936;2024-01-06T08:37:46;40.03;;;20.98;;
41829;SDS011;38614;43.472;23.936;2024-01-06T08:40:34;36.78;;;18.48;;
41829;SDS011;38614;43.472;23.936;2024-01-06T08:43:22;55.20;;;19.58;;
41829;SDS011;38614;43.472;23.936;2024-01-06T08:46:11;39.53;;;21.63;;
41829;SDS011;38614;43.472;23.936;2024-01-06T08:48:59;46.88;;;22.85;;
41829;SDS011;38614;43.472;23.936;2024-01-06T08:51:47;45.33;;;22.75;;
41829;SDS011;38614;43.472;23.936;2024-01-06T08:54:35;45.88;;;19.75;;
41829;SDS011;38614;43.472;23.936;2024-01-06T08:57:23;51.17;;;14.32;;
41829;SDS011;38614;43.472;23.936;2024-01-06T09:00:11;19.90;;;11.65;;
41829;SDS011;38614;43.472;23.936;2024-01-06T09:02:59;26.95;;;14.25;;
41829;SDS011;38614;43.472;23.936;2024-01-06T09:05:47;27.88;;;11.93;;
41829;SDS011;38614;43.472;23.936;2024-01-06T09:08:37;23.80;;;12.70;;
41829;SDS011;38614;43.472;23.936;2024-01-06T09:11:25;22.63;;;11.68;;
41829;SDS011;38614;43.472;23.936;2024-01-06T09:14:12;17.02;;;11.93;;
41829;SDS011;38614;43.472;23.936;2024-01-06T09:17:00;22.70;;;11.68;;
41829;SDS011;38614;43.472;23.936;2024-01-06T09:19:48;24.33;;;12.10;;
41829;SDS011;38614;43.472;23.936;2024-01-06T09:22:36;29.33;;;13.75;;
41829;SDS011;38614;43.472;23.936;2024-01-06T09:25:25;34.88;;;13.90;;
41829;SDS011;38614;43.472;23.936;2024-01-06T09:28:12;40.17;;;14.70;;
41829;SDS011;38614;43.472;23.936;2024-01-06T09:31:00;39.55;;;15.02;;
41829;SDS011;38614;43.472;23.936;2024-01-06T09:33:48;29.38;;;16.27;;
41829;SDS011;38614;43.472;23.936;2024-01-06T09:36:37;28.70;;;13.65;;
41829;SDS011;38614;43.472;23.936;2024-01-06T09:39:25;30.60;;;15.68;;
41829;SDS011;38614;43.472;23.936;2024-01-06T09:42:14;27.17;;;14.18;;
41829;SDS011;38614;43.472;23.936;2024-01-06T09:45:01;25.55;;;13.40;;
41829;SDS011;38614;43.472;23.936;2024-01-06T09:47:51;27.23;;;14.05;;
41829;SDS011;38614;43.472;23.936;2024-01-06T09:50:42;41.50;;;14.63;;
41829;SDS011;38614;43.472;23.936;2024-01-06T09:53:34;39.30;;;15.57;;
41829;SDS011;38614;43.472;23.936;2024-01-06T09:56:24;26.35;;;10.88;;
41829;SDS011;38614;43.472;23.936;2024-01-06T09:59:13;21.05;;;10.77;;
41829;SDS011;38614;43.472;23.936;2024-01-06T10:02:01;26.98;;;14.77;;
41829;SDS011;38614;43.472;23.936;2024-01-06T10:04:51;25.27;;;13.68;;
41829;SDS011;38614;43.472;23.936;2024-01-06T10:07:41;25.35;;;12.85;;
41829;SDS011;38614;43.472;23.936;2024-01-06T10:10:30;25.35;;;11.43;;
41829;SDS011;38614;43.472;23.936;2024-01-06T10:13:23;27.52;;;10.63;;
41829;SDS011;38614;43.472;23.936;2024-01-06T10:16:13;18.52;;;10.48;;
41829;SDS011;38614;43.472;23.936;2024-01-06T10:19:03;21.98;;;11.68;;
41829;SDS011;38614;43.472;23.936;2024-01-06T10:21:51;15.13;;;8.25;;
41829;SDS011;38614;43.472;23.936;2024-01-06T10:24:39;17.92;;;8.98;;
41829;SDS011;38614;43.472;23.936;2024-01-06T10:27:27;22.77;;;10.65;;
41829;SDS011;38614;43.472;23.936;2024-01-06T10:30:15;24.40;;;10.30;;
41829;SDS011;38614;43.472;23.936;2024-01-06T10:33:09;28.67;;;10.68;;
41829;SDS011;38614;43.472;23.936;2024-01-06T10:35:58;32.25;;;11.93;;
41829;SDS011;38614;43.472;23.936;2024-01-06T10:38:47;30.88;;;12.90;;
41829;SDS011;38614;43.472;23.936;2024-01-06T10:41:35;33.10;;;13.90;;
41829;SDS011;38614;43.472;23.936;2024-01-06T10:44:23;40.72;;;14.13;;
41829;SDS011;38614;43.472;23.936;2024-01-06T10:47:14;25.83;;;13.23;;
41829;SDS011;38614;43.472;23.936;2024-01-06T10:50:02;29.13;;;13.32;;
41829;SDS011;38614;43.472;23.936;2024-01-06T10:52:51;32.70;;;14.50;;
41829;SDS011;38614;43.472;23.936;2024-01-06T10:55:39;28.98;;;12.85;;
41829;SDS011;38614;43.472;23.936;2024-01-06T10:58:28;26.42;;;11.43;;
41829;SDS011;38614;43.472;23.936;2024-01-06T11:01:37;32.63;;;11.40;;
41829;SDS011;38614;43.472;23.936;2024-01-06T11:04:33;25.65;;;11.55;;
41829;SDS011;38614;43.472;23.936;2024-01-06T11:07:26;25.00;;;11.77;;
41829;SDS011;38614;43.472;23.936;2024-01-06T11:10:21;26.52;;;11.95;;
41829;SDS011;38614;43.472;23.936;2024-01-06T11:13:28;28.75;;;14.57;;
41829;SDS011;38614;43.472;23.936;2024-01-06T11:16:54;28.30;;;11.05;;
41829;SDS011;38614;43.472;23.936;2024-01-06T11:27:55;28.38;;;12.85;;
41829;SDS011;38614;43.472;23.936;2024-01-06T11:31:22;22.65;;;10.60;;
41829;SDS011;38614;43.472;23.936;2024-01-06T11:34:36;25.70;;;11.88;;
41829;SDS011;38614;43.472;23.936;2024-01-06T11:41:02;22.85;;;11.32;;
41829;SDS011;38614;43.472;23.936;2024-01-06T11:44:26;32.53;;;10.80;;
41829;SDS011;38614;43.472;23.936;2024-01-06T11:47:15;30.35;;;13.15;;
41829;SDS011;38614;43.472;23.936;2024-01-06T11:50:05;44.33;;;16.05;;
41829;SDS011;38614;43.472;23.936;2024-01-06T11:52:54;47.92;;;19.48;;
41829;SDS011;38614;43.472;23.936;2024-01-06T11:55:42;29.00;;;13.07;;
41829;SDS011;38614;43.472;23.936;2024-01-06T11:58:30;31.05;;;12.88;;
41829;SDS011;38614;43.472;23.936;2024-01-06T12:01:18;29.55;;;13.40;;
41829;SDS011;38614;43.472;23.936;2024-01-06T12:04:08;53.20;;;23.25;;
41829;SDS011;38614;43.472;23.936;2024-01-06T12:07:07;38.22;;;19.90;;
41829;SDS011;38614;43.472;23.936;2024-01-06T12:10:01;29.35;;;14.35;;
41829;SDS011;38614;43.472;23.936;2024-01-06T12:13:03;35.17;;;16.05;;
41829;SDS011;38614;43.472;23.936;2024-01-06T12:15:54;39.17;;;15.60;;
41829;SDS011;38614;43.472;23.936;2024-01-06T12:18:48;24.08;;;12.75;;
41829;SDS011;38614;43.472;23.936;2024-01-06T12:21:36;25.40;;;12.07;;
41829;SDS011;38614;43.472;23.936;2024-01-06T12:24:28;57.65;;;22.00;;
41829;SDS011;38614;43.472;23.936;2024-01-06T12:27:16;50.80;;;15.77;;
41829;SDS011;38614;43.472;23.936;2024-01-06T12:30:05;25.65;;;12.18;;
41829;SDS011;38614;43.472;23.936;2024-01-06T12:32:55;25.17;;;12.98;;
41829;SDS011;38614;43.472;23.936;2024-01-06T12:35:43;32.13;;;13.25;;
41829;SDS011;38614;43.472;23.936;2024-01-06T12:38:31;21.98;;;12.65;;
41829;SDS011;38614;43.472;23.936;2024-01-06T12:41:18;32.53;;;14.82;;
41829;SDS011;38614;43.472;23.936;2024-01-06T12:44:10;21.17;;;12.45;;
41829;SDS011;38614;43.472;23.936;2024-01-06T12:47:00;34.67;;;13.75;;
41829;SDS011;38614;43.472;23.936;2024-01-06T12:49:48;28.80;;;13.25;;
41829;SDS011;38614;43.472;23.936;2024-01-06T12:52:36;38.78;;;14.00;;
41829;SDS011;38614;43.472;23.936;2024-01-06T12:55:26;29.70;;;12.55;;
41829;SDS011;38614;43.472;23.936;2024-01-06T12:58:16;30.08;;;12.88;;
41829;SDS011;38614;43.472;23.936;2024-01-06T13:01:03;27.70;;;14.52;;
41829;SDS011;38614;43.472;23.936;2024-01-06T13:03:54;30.02;;;12.98;;
41829;SDS011;38614;43.472;23.936;2024-01-06T13:06:45;29.55;;;14.25;;
41829;SDS011;38614;43.472;23.936;2024-01-06T13:09:33;31.13;;;13.90;;
41829;SDS011;38614;43.472;23.936;2024-01-06T13:12:21;32.60;;;14.27;;
41829;SDS011;38614;43.472;23.936;2024-01-06T13:15:12;30.92;;;15.10;;
41829;SDS011;38614;43.472;23.936;2024-01-06T13:18:02;34.97;;;17.48;;
41829;SDS011;38614;43.472;23.936;2024-01-06T13:20:51;34.08;;;15.13;;
41829;SDS011;38614;43.472;23.936;2024-01-06T13:23:40;26.27;;;13.02;;
41829;SDS011;38614;43.472;23.936;2024-01-06T13:26:28;51.40;;;14.57;;
41829;SDS011;38614;43.472;23.936;2024-01-06T13:29:15;19.63;;;12.02;;
41829;SDS011;38614;43.472;23.936;2024-01-06T13:32:05;28.30;;;14.65;;
41829;SDS011;38614;43.472;23.936;2024-01-06T13:34:53;23.40;;;12.38;;
41829;SDS011;38614;43.472;23.936;2024-01-06T13:37:43;23.30;;;14.27;;
41829;SDS011;38614;43.472;23.936;2024-01-06T13:40:32;28.10;;;13.63;;
41829;SDS011;38614;43.472;23.936;2024-01-06T13:43:20;23.73;;;10.68;;
41829;SDS011;38614;43.472;23.936;2024-01-06T13:46:08;21.80;;;11.80;;
41829;SDS011;38614;43.472;23.936;2024-01-06T13:48:55;33.67;;;12.77;;
41829;SDS011;38614;43.472;23.936;2024-01-06T13:51:43;22.23;;;12.73;;
41829;SDS011;38614;43.472;23.936;2024-01-06T13:54:31;25.23;;;11.85;;
41829;SDS011;38614;43.472;23.936;2024-01-06T13:57:19;25.50;;;11.38;;
41829;SDS011;38614;43.472;23.936;2024-01-06T14:00:09;24.90;;;12.25;;
41829;SDS011;38614;43.472;23.936;2024-01-06T14:02:57;20.13;;;12.80;;
41829;SDS011;38614;43.472;23.936;2024-01-06T14:05:45;30.92;;;14.68;;
41829;SDS011;38614;43.472;23.936;2024-01-06T14:08:33;34.15;;;15.60;;
41829;SDS011;38614;43.472;23.936;2024-01-06T14:11:21;23.92;;;13.63;;
41829;SDS011;38614;43.472;23.936;2024-01-06T14:14:09;32.05;;;13.85;;
41829;SDS011;38614;43.472;23.936;2024-01-06T14:17:00;26.33;;;13.60;;
41829;SDS011;38614;43.472;23.936;2024-01-06T14:19:56;28.70;;;15.02;;
41829;SDS011;38614;43.472;23.936;2024-01-06T14:22:45;21.02;;;13.48;;
41829;SDS011;38614;43.472;23.936;2024-01-06T14:25:32;27.10;;;12.20;;
41829;SDS011;38614;43.472;23.936;2024-01-06T14:28:20;30.58;;;13.73;;
41829;SDS011;38614;43.472;23.936;2024-01-06T14:31:08;26.55;;;12.25;;
41829;SDS011;38614;43.472;23.936;2024-01-06T14:33:57;23.92;;;10.88;;
41829;SDS011;38614;43.472;23.936;2024-01-06T14:36:47;24.35;;;11.05;;
41829;SDS011;38614;43.472;23.936;2024-01-06T14:39:35;22.75;;;11.35;;
41829;SDS011;38614;43.472;23.936;2024-01-06T14:42:24;36.45;;;18.92;;
41829;SDS011;38614;43.472;23.936;2024-01-06T14:45:13;24.33;;;12.93;;
41829;SDS011;38614;43.472;23.936;2024-01-06T14:48:01;35.33;;;14.38;;
41829;SDS011;38614;43.472;23.936;2024-01-06T14:50:49;31.77;;;13.90;;
41829;SDS011;38614;43.472;23.936;2024-01-06T14:53:40;25.95;;;14.15;;
41829;SDS011;38614;43.472;23.936;2024-01-06T14:56:28;54.72;;;21.95;;
41829;SDS011;38614;43.472;23.936;2024-01-06T14:59:17;45.45;;;20.88;;
41829;SDS011;38614;43.472;23.936;2024-01-06T15:02:07;38.25;;;21.45;;
41829;SDS011;38614;43.472;23.936;2024-01-06T15:04:55;38.30;;;17.83;;
41829;SDS011;38614;43.472;23.936;2024-01-06T15:07:43;42.30;;;20.83;;
41829;SDS011;38614;43.472;23.936;2024-01-06T15:10:30;32.78;;;17.42;;
41829;SDS011;38614;43.472;23.936;2024-01-06T15:13:19;41.97;;;16.25;;
41829;SDS011;38614;43.472;23.936;2024-01-06T15:16:06;38.97;;;17.38;;
41829;SDS011;38614;43.472;23.936;2024-01-06T15:18:54;43.95;;;17.95;;
41829;SDS011;38614;43.472;23.936;2024-01-06T15:21:46;38.80;;;20.45;;
41829;SDS011;38614;43.472;23.936;2024-01-06T15:24:37;45.88;;;23.17;;
41829;SDS011;38614;43.472;23.936;2024-01-06T15:27:25;53.80;;;23.45;;
41829;SDS011;38614;43.472;23.936;2024-01-06T15:30:13;53.65;;;23.00;;
41829;SDS011;38614;43.472;23.936;2024-01-06T15:33:01;56.47;;;27.00;;
41829;SDS011;38614;43.472;23.936;2024-01-06T15:35:49;107.20;;;49.42;;
41829;SDS011;38614;43.472;23.936;2024-01-06T15:38:37;248.10;;;130.25;;
41829;SDS011;38614;43.472;23.936;2024-01-06T15:41:25;96.93;;;51.95;;
41829;SDS011;38614;43.472;23.936;2024-01-06T15:44:12;77.15;;;39.13;;
41829;SDS011;38614;43.472;23.936;2024-01-06T15:47:00;73.20;;;34.50;;
41829;SDS011;38614;43.472;23.936;2024-01-06T15:49:50;81.15;;;36.70;;
41829;SDS011;38614;43.472;23.936;2024-01-06T15:52:40;98.93;;;42.80;;
41829;SDS011;38614;43.472;23.936;2024-01-06T15:55:28;105.97;;;45.17;;
41829;SDS011;38614;43.472;23.936;2024-01-06T15:58:16;97.18;;;42.00;;
41829;SDS011;38614;43.472;23.936;2024-01-06T16:01:13;74.50;;;30.83;;
41829;SDS011;38614;43.472;23.936;2024-01-06T16:04:01;65.50;;;30.08;;
41829;SDS011;38614;43.472;23.936;2024-01-06T16:06:52;69.55;;;31.33;;
41829;SDS011;38614;43.472;23.936;2024-01-06T16:09:40;111.65;;;39.97;;
41829;SDS011;38614;43.472;23.936;2024-01-06T16:12:28;79.03;;;38.67;;
41829;SDS011;38614;43.472;23.936;2024-01-06T16:15:18;71.70;;;34.30;;
41829;SDS011;38614;43.472;23.936;2024-01-06T16:18:07;79.22;;;31.27;;
41829;SDS011;38614;43.472;23.936;2024-01-06T16:20:55;87.28;;;36.85;;
41829;SDS011;38614;43.472;23.936;2024-01-06T16:23:44;75.10;;;35.13;;
41829;SDS011;38614;43.472;23.936;2024-01-06T16:26:32;70.88;;;35.20;;
41829;SDS011;38614;43.472;23.936;2024-01-06T16:29:20;68.85;;;35.60;;